Time;durP1;ratioP1;P1;durP2;ratioP2;P2;SDS_P1;SDS_P2;PMS_P1;PMS_P2;Temp;Humidity;BMP_temperature;BMP_pressure;BME280_temperature;BME280_humidity;BME280_pressure;Samples;Min_cycle;Max_cycle;Signal;HPM_P1;HPM_P2
2023/07/12 00:01:00;;;;;;;5.75;2.67;;;20.70;99.90;;;;;;6310259;22;20019;-86
2023/07/12 00:03:27;;;;;;;4.78;2.50;;;20.60;99.90;;;;;;6283600;22;20073;-86
2023/07/12 00:05:54;;;;;;;4.82;2.78;;;20.50;99.90;;;;;;6283934;22;20387;-86
2023/07/12 00:08:23;;;;;;;5.50;2.30;;;20.40;99.90;;;;;;6338966;22;20310;-86
2023/07/12 00:10:50;;;;;;;4.72;2.28;;;20.40;99.90;;;;;;6310875;22;20010;-86
2023/07/12 00:13:17;;;;;;;6.88;2.92;;;20.50;99.90;;;;;;6310396;22;20018;-85
2023/07/12 00:15:45;;;;;;;4.88;2.55;;;20.50;99.90;;;;;;6337945;22;20025;-86
2023/07/12 00:18:19;;;;;;;4.97;2.10;;;20.50;99.90;;;;;;6337959;22;20014;-86
2023/07/12 00:20:46;;;;;;;4.45;2.75;;;20.50;99.90;;;;;;6312690;22;20068;-86
2023/07/12 00:23:14;;;;;;;8.57;3.47;;;20.50;99.90;;;;;;6285170;22;20007;-86
2023/07/12 00:25:41;;;;;;;4.70;2.88;;;20.50;99.90;;;;;;6310841;22;20311;-85
2023/07/12 00:28:24;;;;;;;5.55;2.78;;;20.40;99.90;;;;;;6337294;22;20018;-86
2023/07/12 00:30:54;;;;;;;5.00;2.55;;;20.40;99.90;;;;;;6337364;22;20454;-86
2023/07/12 00:33:20;;;;;;;6.35;3.10;;;20.30;99.90;;;;;;6284345;22;20465;-86
2023/07/12 00:35:47;;;;;;;6.25;2.10;;;20.30;99.90;;;;;;6310595;22;20014;-85
2023/07/12 00:38:22;;;;;;;6.57;2.72;;;20.30;99.90;;;;;;6284563;22;20086;-86
2023/07/12 00:40:48;;;;;;;7.93;2.85;;;20.30;99.90;;;;;;6281788;22;20014;-86
2023/07/12 00:43:46;;;;;;;5.18;2.30;;;20.20;99.90;;;;;;6307177;22;20021;-86
2023/07/12 00:46:16;;;;;;;6.93;2.85;;;20.20;99.90;;;;;;6200215;22;20154;-86
2023/07/12 00:48:47;;;;;;;5.53;2.58;;;20.20;99.90;;;;;;6335226;22;20375;-86
2023/07/12 00:51:31;;;;;;;3.67;1.80;;;20.10;99.90;;;;;;6306066;22;20406;-86
2023/07/12 00:53:57;;;;;;;;;;;20.00;99.90;;;;;;6307552;22;20041;-87
2023/07/12 00:56:24;;;;;;;4.60;1.70;;;20.00;99.90;;;;;;6282383;22;19914;-86
2023/07/12 00:59:17;;;;;;;4.93;2.60;;;20.10;99.90;;;;;;6308293;22;20490;-86
2023/07/12 01:01:45;;;;;;;4.97;2.33;;;20.10;99.90;;;;;;6282552;22;20365;-86
2023/07/12 01:04:16;;;;;;;4.43;2.03;;;20.20;99.90;;;;;;6306610;22;20018;-85
2023/07/12 01:06:42;;;;;;;7.70;2.25;;;20.20;99.90;;;;;;6282100;22;20554;-85
2023/07/12 01:09:12;;;;;;;3.88;1.98;;;20.20;99.90;;;;;;6334379;22;20072;-86
2023/07/12 01:11:39;;;;;;;3.17;1.80;;;20.20;99.90;;;;;;6308788;22;20098;-85
2023/07/12 01:14:11;;;;;;;5.10;1.77;;;20.20;99.90;;;;;;6336264;22;20010;-86
2023/07/12 01:16:39;;;;;;;5.18;2.10;;;20.10;99.90;;;;;;6308703;22;20093;-87
2023/07/12 01:19:04;;;;;;;5.63;2.17;;;20.10;99.90;;;;;;6308201;22;20017;-86
2023/07/12 01:21:33;;;;;;;6.63;2.88;;;20.00;99.90;;;;;;6283918;22;20404;-86
2023/07/12 01:24:20;;;;;;;5.13;2.20;;;19.90;99.90;;;;;;6306033;22;20045;-86
2023/07/12 01:26:50;;;;;;;4.97;1.98;;;19.80;99.90;;;;;;6334983;22;20007;-86
2023/07/12 01:29:15;;;;;;;5.60;2.40;;;19.80;99.90;;;;;;6305392;22;20014;-86
2023/07/12 01:31:42;;;;;;;6.05;2.70;;;19.70;99.90;;;;;;6331570;22;20009;-86
2023/07/12 01:34:09;;;;;;;5.60;2.70;;;19.70;99.90;;;;;;6278842;22;20011;-86
2023/07/12 01:36:35;;;;;;;4.90;2.53;;;19.70;99.90;;;;;;6305807;22;20011;-86
2023/07/12 01:39:03;;;;;;;4.88;2.10;;;19.70;99.90;;;;;;6333879;22;20014;-86
2023/07/12 01:41:29;;;;;;;5.47;2.40;;;19.70;99.90;;;;;;6281877;22;20045;-86
2023/07/12 01:43:55;;;;;;;4.35;2.47;;;19.70;99.90;;;;;;6306476;22;20068;-86
2023/07/12 01:46:20;;;;;;;4.07;2.25;;;19.60;99.90;;;;;;6306053;22;20022;-86
2023/07/12 01:48:47;;;;;;;5.88;2.65;;;19.70;99.90;;;;;;6335309;22;20011;-87
2023/07/12 01:51:15;;;;;;;5.70;3.20;;;19.70;99.90;;;;;;6333878;22;20493;-86
2023/07/12 01:53:41;;;;;;;4.35;2.53;;;19.70;99.90;;;;;;6333465;22;20030;-86
2023/07/12 01:56:06;;;;;;;7.50;3.00;;;19.70;99.90;;;;;;6332767;22;20011;-86
2023/07/12 01:58:33;;;;;;;6.70;2.83;;;19.70;99.90;;;;;;6305064;22;20085;-86
2023/07/12 02:00:59;;;;;;;7.35;2.80;;;19.60;99.90;;;;;;6304225;22;20010;-86
2023/07/12 02:03:26;;;;;;;6.38;2.83;;;19.60;99.90;;;;;;6303237;22;20019;-86
2023/07/12 02:05:52;;;;;;;6.38;2.92;;;19.60;99.90;;;;;;6304346;22;20030;-86
2023/07/12 02:08:19;;;;;;;4.78;2.58;;;19.60;99.90;;;;;;6280413;22;20042;-86
2023/07/12 02:10:44;;;;;;;6.60;2.97;;;19.60;99.90;;;;;;6306879;22;20391;-86
2023/07/12 02:13:10;;;;;;;8.15;2.90;;;19.50;99.90;;;;;;6306823;22;20050;-86
2023/07/12 02:15:36;;;;;;;4.28;2.28;;;19.50;99.90;;;;;;6333710;22;20441;-86
2023/07/12 02:18:02;;;;;;;6.55;3.55;;;19.60;99.90;;;;;;6333797;22;20450;-86
2023/07/12 02:20:28;;;;;;;7.70;2.80;;;19.50;99.90;;;;;;6307016;22;20019;-86
2023/07/12 02:22:54;;;;;;;6.80;3.22;;;19.50;99.90;;;;;;6334031;22;20015;-86
2023/07/12 02:25:20;;;;;;;7.55;3.53;;;19.50;99.90;;;;;;6333285;22;20034;-86
2023/07/12 02:27:47;;;;;;;5.97;3.03;;;19.50;99.90;;;;;;6305062;22;20014;-86
2023/07/12 02:30:20;;;;;;;8.10;3.58;;;19.50;99.90;;;;;;6332217;22;20029;-85
2023/07/12 02:32:46;;;;;;;6.05;3.00;;;19.50;99.90;;;;;;6305308;22;20018;-85
2023/07/12 02:35:12;;;;;;;8.45;3.25;;;19.50;99.90;;;;;;6332083;22;20077;-85
2023/07/12 02:37:38;;;;;;;9.75;3.97;;;19.50;99.90;;;;;;6306834;22;20015;-85
2023/07/12 02:40:06;;;;;;;6.32;3.33;;;19.40;99.90;;;;;;6304978;22;20025;-86
2023/07/12 02:42:32;;;;;;;8.20;3.67;;;19.40;99.90;;;;;;6307900;22;20072;-85
2023/07/12 02:44:58;;;;;;;7.72;3.15;;;19.40;99.90;;;;;;6306897;22;20018;-86
2023/07/12 02:47:24;;;;;;;7.38;2.75;;;19.30;99.90;;;;;;6305865;22;20007;-85
2023/07/12 02:49:49;;;;;;;8.02;3.50;;;19.30;99.90;;;;;;6306645;22;20018;-86
2023/07/12 02:52:15;;;;;;;9.07;3.50;;;19.20;99.90;;;;;;6305415;22;20033;-85
2023/07/12 02:54:42;;;;;;;7.68;2.53;;;19.20;99.90;;;;;;6306305;22;20446;-85
2023/07/12 02:57:11;;;;;;;9.52;3.40;;;19.20;99.90;;;;;;6334147;22;20011;-85
2023/07/12 02:59:37;;;;;;;10.23;2.92;;;19.20;99.90;;;;;;6304408;22;20022;-85
2023/07/12 03:02:04;;;;;;;7.22;3.05;;;19.20;99.90;;;;;;6332023;22;20066;-85
2023/07/12 03:04:30;;;;;;;6.88;3.08;;;19.10;99.90;;;;;;6333280;22;20035;-85
2023/07/12 03:06:55;;;;;;;9.90;3.30;;;19.10;99.90;;;;;;6306037;22;20099;-85
2023/07/12 03:09:22;;;;;;;7.18;3.30;;;19.20;99.90;;;;;;6306936;22;20007;-85
2023/07/12 03:11:48;;;;;;;6.40;3.28;;;19.20;99.90;;;;;;6306673;22;20023;-85
2023/07/12 03:14:24;;;;;;;7.60;3.30;;;19.20;99.90;;;;;;6305615;22;20472;-86
2023/07/12 03:16:50;;;;;;;8.77;2.78;;;19.10;99.90;;;;;;6306974;22;20027;-86
2023/07/12 03:19:16;;;;;;;10.57;3.00;;;19.10;99.90;;;;;;6306530;22;20075;-86
2023/07/12 03:21:43;;;;;;;10.73;3.45;;;19.10;99.90;;;;;;6335205;22;20002;-86
2023/07/12 03:24:09;;;;;;;10.75;3.03;;;19.00;99.90;;;;;;6305923;22;20426;-87
2023/07/12 03:26:36;;;;;;;13.18;3.28;;;19.00;99.90;;;;;;6280973;22;20029;-86
2023/07/12 03:29:03;;;;;;;6.35;3.10;;;19.00;99.90;;;;;;6333924;22;20006;-87
2023/07/12 03:31:29;;;;;;;10.63;3.60;;;18.90;99.90;;;;;;6307587;22;20006;-86
2023/07/12 03:33:56;;;;;;;12.45;4.40;;;18.90;99.90;;;;;;6335039;22;20060;-86
2023/07/12 03:36:26;;;;;;;10.38;3.60;;;18.90;99.90;;;;;;6307660;22;20042;-86
2023/07/12 03:38:52;;;;;;;8.95;3.95;;;18.90;99.90;;;;;;6310411;22;20097;-86
2023/07/12 03:41:20;;;;;;;10.70;3.95;;;18.80;99.90;;;;;;6333917;22;20011;-87
2023/07/12 03:43:47;;;;;;;13.07;4.05;;;18.80;99.90;;;;;;6281718;22;20014;-87
2023/07/12 03:46:13;;;;;;;12.23;4.10;;;18.70;99.90;;;;;;6306623;22;20006;-86
2023/07/12 03:48:39;;;;;;;12.93;4.13;;;18.60;99.90;;;;;;6336250;22;20010;-87
2023/07/12 03:51:06;;;;;;;8.75;3.63;;;18.50;99.90;;;;;;6308822;22;20011;-86
2023/07/12 03:53:32;;;;;;;10.30;3.33;;;18.50;99.90;;;;;;6337206;22;20086;-86
2023/07/12 03:56:03;;;;;;;10.07;3.40;;;18.40;99.90;;;;;;6281982;22;20464;-87
2023/07/12 03:58:33;;;;;;;7.30;2.60;;;18.40;99.90;;;;;;6309654;22;20015;-86
2023/07/12 04:01:03;;;;;;;15.55;4.35;;;18.50;99.90;;;;;;6281070;22;20015;-86
2023/07/12 04:03:29;;;;;;;11.15;3.90;;;18.50;99.90;;;;;;6306400;22;20017;-87
2023/07/12 04:05:55;;;;;;;8.18;3.83;;;18.50;99.90;;;;;;6307341;22;20019;-86
2023/07/12 04:08:21;;;;;;;13.27;4.10;;;18.50;99.90;;;;;;6307770;22;20439;-86
2023/07/12 04:10:53;;;;;;;12.65;4.05;;;18.50;99.90;;;;;;6335251;22;20011;-86
2023/07/12 04:13:19;;;;;;;11.05;4.38;;;18.60;99.90;;;;;;6308446;22;20014;-86
2023/07/12 04:15:44;;;;;;;12.50;4.40;;;18.50;99.90;;;;;;6337639;22;20072;-87
2023/07/12 04:18:10;;;;;;;12.68;4.22;;;18.50;99.90;;;;;;6309867;22;20087;-86
2023/07/12 04:20:39;;;;;;;9.95;4.40;;;18.50;99.90;;;;;;6283868;22;20113;-85
2023/07/12 04:23:05;;;;;;;15.30;4.38;;;18.50;99.90;;;;;;6309916;22;20019;-86
2023/07/12 04:25:32;;;;;;;13.60;3.90;;;18.50;99.90;;;;;;6336709;22;20075;-87
2023/07/12 04:27:58;;;;;;;11.52;3.92;;;18.50;99.90;;;;;;6335728;22;20021;-86
2023/07/12 04:30:24;;;;;;;14.50;4.30;;;18.50;99.90;;;;;;6335144;22;20059;-87
2023/07/12 04:32:52;;;;;;;10.88;3.95;;;18.50;99.90;;;;;;6307753;22;20014;-86
2023/07/12 04:35:19;;;;;;;13.70;4.68;;;18.40;99.90;;;;;;6309999;22;20021;-86
2023/07/12 04:37:49;;;;;;;14.48;4.30;;;18.40;99.90;;;;;;6336040;22;20015;-86
2023/07/12 04:40:17;;;;;;;9.40;3.55;;;18.40;99.90;;;;;;6307182;22;20687;-86
2023/07/12 04:42:43;;;;;;;8.85;3.05;;;18.40;99.90;;;;;;6282623;22;20094;-86
2023/07/12 04:45:10;;;;;;;11.20;4.43;;;18.40;99.90;;;;;;6308387;22;20018;-87
2023/07/12 04:47:36;;;;;;;11.10;3.75;;;18.40;99.90;;;;;;6282316;22;20097;-86
2023/07/12 04:50:07;;;;;;;11.18;3.53;;;18.30;99.90;;;;;;6333003;22;20575;-86
2023/07/12 04:52:33;;;;;;;10.82;3.75;;;18.30;99.90;;;;;;6305167;22;20018;-87
2023/07/12 04:55:02;;;;;;;10.95;3.72;;;18.40;99.90;;;;;;6278378;22;20019;-86
2023/07/12 04:57:28;;;;;;;11.40;4.72;;;18.40;99.90;;;;;;6307727;22;20088;-86
2023/07/12 04:59:54;;;;;;;11.38;3.75;;;18.40;99.90;;;;;;6309156;22;20447;-86
2023/07/12 05:02:20;;;;;;;10.50;4.20;;;18.30;99.90;;;;;;6336168;22;20013;-86
2023/07/12 05:04:46;;;;;;;8.93;4.32;;;18.30;99.90;;;;;;6334663;22;20445;-87
2023/07/12 05:07:11;;;;;;;14.85;4.43;;;18.20;99.90;;;;;;6308021;22;20011;-86
2023/07/12 05:09:37;;;;;;;12.82;4.45;;;18.20;99.90;;;;;;6282061;22;20460;-87
2023/07/12 05:12:04;;;;;;;10.88;3.35;;;18.30;99.90;;;;;;6335187;22;20457;-87
2023/07/12 05:14:29;;;;;;;11.18;3.72;;;18.30;99.90;;;;;;6283597;22;20068;-88
2023/07/12 05:16:55;;;;;;;12.30;4.05;;;18.40;99.90;;;;;;6307824;22;20125;-87
2023/07/12 05:19:21;;;;;;;11.25;3.88;;;18.30;99.90;;;;;;6285147;22;20021;-86
2023/07/12 05:21:47;;;;;;;11.00;4.20;;;18.40;99.90;;;;;;6335238;22;20497;-87
2023/07/12 05:24:13;;;;;;;8.90;3.70;;;18.40;99.90;;;;;;6280295;22;20026;-87
2023/07/12 05:26:39;;;;;;;14.02;4.57;;;18.30;99.90;;;;;;6307705;22;20014;-85
2023/07/12 05:29:04;;;;;;;9.48;4.03;;;18.40;99.90;;;;;;6306132;22;20075;-85
2023/07/12 05:31:31;;;;;;;13.93;4.68;;;18.40;99.90;;;;;;6307118;22;20015;-85
2023/07/12 05:33:57;;;;;;;11.90;4.53;;;18.40;99.90;;;;;;6279699;22;20019;-85
2023/07/12 05:36:23;;;;;;;10.57;4.18;;;18.40;99.90;;;;;;6307019;22;20018;-85
2023/07/12 05:38:48;;;;;;;12.00;4.13;;;18.50;99.90;;;;;;6333196;22;20007;-84
2023/07/12 05:41:14;;;;;;;14.85;4.35;;;18.60;99.90;;;;;;6333156;22;20011;-85
2023/07/12 05:43:41;;;;;;;15.52;5.13;;;18.60;99.90;;;;;;6335279;22;20076;-87
2023/07/12 05:46:07;;;;;;;11.45;4.45;;;18.60;99.90;;;;;;6333888;22;20015;-88
2023/07/12 05:48:32;;;;;;;13.30;4.80;;;18.60;99.90;;;;;;6310798;22;20096;-88
2023/07/12 05:50:59;;;;;;;19.05;5.05;;;18.60;99.90;;;;;;6338265;22;20006;-87
2023/07/12 05:53:25;;;;;;;10.50;4.30;;;18.60;99.90;;;;;;6336135;22;20027;-84
2023/07/12 05:55:56;;;;;;;16.15;5.18;;;18.60;99.90;;;;;;6334810;22;20015;-86
2023/07/12 05:58:22;;;;;;;9.65;3.95;;;18.50;99.90;;;;;;6307263;22;20017;-86
2023/07/12 06:00:47;;;;;;;18.48;4.90;;;18.60;99.90;;;;;;6307771;22;20081;-87
2023/07/12 06:03:13;;;;;;;15.63;5.43;;;18.50;99.90;;;;;;6334176;22;20391;-86
2023/07/12 06:05:44;;;;;;;15.27;4.78;;;18.50;99.90;;;;;;6280326;22;20064;-84
2023/07/12 06:08:10;;;;;;;13.27;4.10;;;18.50;99.90;;;;;;6278858;22;20014;-85
2023/07/12 06:10:36;;;;;;;11.98;5.15;;;18.50;99.90;;;;;;6333558;22;20015;-86
2023/07/12 06:13:01;;;;;;;16.42;4.95;;;18.60;99.90;;;;;;6305443;22;20042;-84
2023/07/12 06:15:27;;;;;;;16.80;5.50;;;18.60;99.90;;;;;;6306047;22;20015;-84
2023/07/12 06:17:53;;;;;;;12.95;5.05;;;18.60;99.90;;;;;;6305687;22;20011;-85
2023/07/12 06:20:19;;;;;;;15.25;5.43;;;18.60;99.90;;;;;;6304702;22;20022;-83
2023/07/12 06:22:44;;;;;;;16.40;5.53;;;18.70;99.90;;;;;;6305086;22;20034;-83
2023/07/12 06:25:10;;;;;;;18.15;5.93;;;18.70;99.90;;;;;;6307240;22;20042;-88
2023/07/12 06:27:36;;;;;;;11.05;5.15;;;18.80;99.90;;;;;;6282893;22;20007;-87
2023/07/12 06:30:02;;;;;;;14.70;5.32;;;18.80;99.90;;;;;;6307485;22;20093;-86
2023/07/12 06:32:28;;;;;;;13.88;5.90;;;18.90;99.90;;;;;;6308402;22;20045;-86
2023/07/12 06:34:53;;;;;;;15.60;6.45;;;18.90;99.90;;;;;;6308806;22;20015;-86
2023/07/12 06:37:19;;;;;;;14.82;4.97;;;18.90;99.90;;;;;;6308567;22;20072;-86
2023/07/12 06:39:44;;;;;;;13.05;5.03;;;19.00;99.90;;;;;;6336278;22;20014;-86
2023/07/12 06:42:10;;;;;;;16.63;4.97;;;19.00;99.90;;;;;;6307964;22;20076;-86
2023/07/12 06:44:36;;;;;;;12.50;6.18;;;19.00;99.90;;;;;;6308036;22;20019;-86
2023/07/12 06:47:01;;;;;;;12.63;4.97;;;18.90;99.90;;;;;;6306913;22;20022;-86
2023/07/12 06:49:27;;;;;;;13.85;4.80;;;18.90;99.90;;;;;;6308234;22;20018;-86
2023/07/12 06:51:53;;;;;;;17.35;5.57;;;19.00;99.90;;;;;;6231447;22;1157974;-86
2023/07/12 06:54:19;;;;;;;17.85;4.90;;;18.90;99.90;;;;;;6283691;22;20026;-86
2023/07/12 06:56:46;;;;;;;12.25;4.90;;;18.90;99.90;;;;;;6309619;22;20376;-86
2023/07/12 06:59:12;;;;;;;11.65;4.40;;;18.90;99.90;;;;;;6308940;22;20497;-87
2023/07/12 07:01:37;;;;;;;14.60;4.60;;;19.00;99.90;;;;;;6336829;22;20056;-87
2023/07/12 07:04:03;;;;;;;12.52;4.53;;;19.00;99.90;;;;;;6336226;22;20011;-88
2023/07/12 07:06:30;;;;;;;10.15;3.92;;;19.10;99.90;;;;;;6280871;22;20379;-85
2023/07/12 07:08:56;;;;;;;11.15;4.05;;;19.20;99.90;;;;;;6334677;22;20046;-85
2023/07/12 07:11:22;;;;;;;13.35;4.85;;;19.30;99.90;;;;;;6301192;22;20022;-85
2023/07/12 07:13:50;;;;;;;12.88;5.18;;;19.40;99.90;;;;;;6297298;22;20042;-85
2023/07/12 07:16:16;;;;;;;9.73;4.32;;;19.50;99.90;;;;;;6296618;22;20090;-84
2023/07/12 07:18:42;;;;;;;15.10;4.38;;;19.60;99.90;;;;;;6294692;22;20499;-84
2023/07/12 07:21:08;;;;;;;10.02;4.03;;;19.70;99.90;;;;;;6331176;22;20011;-84
2023/07/12 07:23:34;;;;;;;11.15;3.95;;;19.90;99.90;;;;;;6283607;22;20048;-86
2023/07/12 07:26:07;;;;;;;8.82;3.65;;;20.10;99.90;;;;;;6309941;22;20042;-89
2023/07/12 07:28:34;;;;;;;12.40;3.95;;;20.30;99.90;;;;;;6308849;22;20086;-85
2023/07/12 07:31:00;;;;;;;9.77;3.53;;;20.30;99.90;;;;;;6338622;22;20017;-86
2023/07/12 07:33:27;;;;;;;12.38;3.95;;;20.40;99.90;;;;;;6308520;22;20023;-86
2023/07/12 07:35:53;;;;;;;16.83;3.85;;;20.70;99.90;;;;;;6285377;22;20072;-87
2023/07/12 07:38:25;;;;;;;10.80;3.60;;;20.80;99.90;;;;;;6311433;22;20014;-89
2023/07/12 07:40:51;;;;;;;12.48;4.13;;;20.70;99.90;;;;;;6288988;22;20417;-88
2023/07/12 07:43:17;;;;;;;15.98;3.78;;;20.50;99.90;;;;;;6344152;22;20042;-89
2023/07/12 07:45:43;;;;;;;10.85;4.43;;;20.40;99.90;;;;;;6316032;22;20007;-88
2023/07/12 07:48:10;;;;;;;13.23;4.00;;;20.30;99.90;;;;;;6314893;22;20507;-88
2023/07/12 07:50:36;;;;;;;14.60;4.13;;;20.30;99.90;;;;;;6311654;22;20031;-88
2023/07/12 07:53:03;;;;;;;13.88;3.63;;;20.30;99.90;;;;;;6287543;22;20319;-88
2023/07/12 07:55:29;;;;;;;12.45;3.95;;;20.50;99.90;;;;;;6313821;22;20457;-87
2023/07/12 07:57:54;;;;;;;11.07;3.50;;;20.50;99.90;;;;;;6312955;22;20010;-88
2023/07/12 08:00:20;;;;;;;12.55;4.95;;;20.50;99.90;;;;;;6340547;22;20021;-88
2023/07/12 08:02:46;;;;;;;16.05;5.13;;;20.40;99.90;;;;;;6313363;22;20011;-90
2023/07/12 08:05:14;;;;;;;21.55;6.32;;;20.30;99.90;;;;;;6313155;22;20478;-89
2023/07/12 08:07:46;;;;;;;11.32;4.88;;;20.10;99.90;;;;;;6340668;22;20083;-89
2023/07/12 08:10:15;;;;;;;13.95;4.80;;;19.90;99.90;;;;;;6339823;22;20013;-88
2023/07/12 08:12:42;;;;;;;15.95;4.90;;;19.80;99.90;;;;;;6312102;22;20032;-89
2023/07/12 08:15:08;;;;;;;14.18;5.05;;;19.70;99.90;;;;;;6311628;22;20007;-89
2023/07/12 08:17:34;;;;;;;15.18;5.38;;;19.60;99.90;;;;;;6311700;22;20079;-88
2023/07/12 08:19:59;;;;;;;14.20;5.65;;;19.50;99.90;;;;;;6311789;22;20438;-89
2023/07/12 08:22:25;;;;;;;13.95;5.22;;;19.50;99.90;;;;;;6286510;22;20025;-88
2023/07/12 08:24:51;;;;;;;10.65;4.75;;;19.50;99.90;;;;;;6340323;22;20338;-89
2023/07/12 08:27:17;;;;;;;19.58;6.05;;;19.50;99.90;;;;;;6312488;22;20017;-91
2023/07/12 08:29:44;;;;;;;11.40;3.60;;;19.40;99.90;;;;;;6312028;22;20007;-89
2023/07/12 08:32:10;;;;;;;13.63;3.55;;;19.40;99.90;;;;;;6338707;22;20018;-89
2023/07/12 08:34:36;;;;;;;13.88;4.65;;;19.30;99.90;;;;;;6339970;22;20037;-89
2023/07/12 08:37:02;;;;;;;12.10;4.85;;;19.30;99.90;;;;;;6311799;22;20442;-89
2023/07/12 08:39:28;;;;;;;17.05;5.55;;;19.30;99.90;;;;;;6312278;22;20397;-89
2023/07/12 08:41:53;;;;;;;15.80;6.63;;;19.30;99.90;;;;;;6311762;22;20010;-91
2023/07/12 08:44:20;;;;;;;12.45;5.85;;;19.40;99.90;;;;;;6312652;22;20017;-89
2023/07/12 08:46:58;;;;;;;12.45;5.22;;;19.50;99.90;;;;;;6312503;22;20018;-89
2023/07/12 08:49:26;;;;;;;11.88;5.70;;;19.50;99.90;;;;;;6313599;22;20065;-90
2023/07/12 08:52:05;;;;;;;11.15;6.22;;;19.50;99.90;;;;;;6340920;22;20507;-90
2023/07/12 08:54:34;;;;;;;13.93;5.70;;;19.60;99.90;;;;;;6312769;22;20017;-90
2023/07/12 08:57:14;;;;;;;12.10;6.38;;;19.60;99.90;;;;;;6313359;22;20015;-90
2023/07/12 08:59:41;;;;;;;18.50;6.65;;;19.60;99.90;;;;;;6286824;22;20038;-90
2023/07/12 09:02:21;;;;;;;15.30;6.13;;;19.60;99.90;;;;;;6312006;22;20060;-91
2023/07/12 09:04:47;;;;;;;20.10;6.85;;;19.60;99.90;;;;;;6339631;22;20011;-92
2023/07/12 09:07:28;;;;;;;11.80;5.45;;;19.50;99.90;;;;;;6285641;22;20533;-89
2023/07/12 09:09:57;;;;;;;13.07;7.43;;;19.50;99.90;;;;;;6311184;22;20010;-90
2023/07/12 09:12:30;;;;;;;16.63;6.35;;;19.60;99.90;;;;;;6312131;22;20015;-90
2023/07/12 09:15:10;;;;;;;17.55;6.88;;;19.60;99.90;;;;;;6311993;22;20022;-91
2023/07/12 09:17:42;;;;;;;16.95;6.85;;;19.80;99.90;;;;;;6312171;22;20018;-91
2023/07/12 09:20:30;;;;;;;13.20;5.22;;;19.90;99.90;;;;;;6312470;22;20021;-89
2023/07/12 09:22:56;;;;;;;13.05;6.00;;;20.10;99.90;;;;;;6339010;22;20057;-90
2023/07/12 09:25:35;;;;;;;15.50;5.88;;;20.10;99.90;;;;;;6312064;22;20011;-90
2023/07/12 09:28:01;;;;;;;13.02;5.38;;;20.00;99.90;;;;;;6339992;22;20034;-87
2023/07/12 09:30:29;;;;;;;11.60;4.60;;;20.00;99.90;;;;;;6341834;22;20465;-89
2023/07/12 09:32:56;;;;;;;15.15;5.03;;;20.00;99.90;;;;;;6313400;22;20030;-89
2023/07/12 09:35:38;;;;;;;13.57;5.20;;;19.80;99.90;;;;;;6341845;22;20011;-89
2023/07/12 09:38:09;;;;;;;10.77;5.22;;;19.90;99.90;;;;;;6339910;22;20007;-89
2023/07/12 09:40:38;;;;;;;11.80;4.45;;;19.90;99.90;;;;;;6311572;22;20019;-86
2023/07/12 09:43:13;;;;;;;12.15;4.45;;;19.90;99.90;;;;;;6284315;22;20026;-87
2023/07/12 09:45:41;;;;;;;9.18;3.55;;;19.90;99.90;;;;;;6310577;22;20011;-86
2023/07/12 09:48:16;;;;;;;9.15;4.32;;;19.90;99.90;;;;;;6309249;22;20502;-85
2023/07/12 09:51:06;;;;;;;12.45;4.00;;;20.00;99.90;;;;;;6310236;22;20038;-87
2023/07/12 09:53:40;;;;;;;9.48;3.78;;;20.10;99.90;;;;;;6338463;22;20070;-88
2023/07/12 09:56:29;;;;;;;9.55;3.47;;;20.20;99.90;;;;;;6337981;22;20040;-87
2023/07/12 09:59:26;;;;;;;8.13;3.75;;;20.40;99.90;;;;;;6309155;22;20015;-87
2023/07/12 10:02:01;;;;;;;11.75;4.05;;;20.50;99.90;;;;;;6338185;22;20007;-87
2023/07/12 10:04:44;;;;;;;11.05;3.47;;;20.50;99.90;;;;;;6338440;22;20010;-86
2023/07/12 10:07:16;;;;;;;7.72;2.83;;;20.40;99.90;;;;;;6338238;22;20046;-87
2023/07/12 10:09:46;;;;;;;10.05;2.83;;;20.30;99.90;;;;;;6338392;22;20022;-87
2023/07/12 10:12:26;;;;;;;9.35;2.67;;;20.30;99.90;;;;;;6339173;22;20381;-87
2023/07/12 10:14:54;;;;;;;8.48;2.55;;;20.30;99.90;;;;;;6310660;22;20442;-87
2023/07/12 10:17:38;;;;;;;7.00;2.50;;;20.40;99.90;;;;;;6310626;22;20014;-87
2023/07/12 10:20:05;;;;;;;6.75;2.45;;;20.60;99.90;;;;;;6284454;22;20010;-87
2023/07/12 10:22:38;;;;;;;9.18;2.90;;;20.80;99.90;;;;;;6339009;22;20049;-87
2023/07/12 10:25:28;;;;;;;8.77;2.83;;;21.00;99.90;;;;;;6310095;22;20026;-87
2023/07/12 10:28:05;;;;;;;11.98;3.05;;;21.20;99.90;;;;;;6283184;22;20018;-87
2023/07/12 10:30:32;;;;;;;6.15;2.22;;;21.20;99.90;;;;;;6310360;22;20014;-87
2023/07/12 10:33:24;;;;;;;12.23;2.78;;;21.10;99.90;;;;;;6307760;22;20018;-82
2023/07/12 10:35:58;;;;;;;6.68;2.58;;;21.00;99.90;;;;;;6304386;22;20007;-81
2023/07/12 10:38:25;;;;;;;7.35;2.55;;;21.00;99.90;;;;;;6306682;22;20007;-84
2023/07/12 10:40:59;;;;;;;6.03;2.03;;;21.20;99.90;;;;;;6281293;22;20014;-83
2023/07/12 10:43:28;;;;;;;9.50;2.38;;;21.40;99.90;;;;;;6332866;22;20011;-83
2023/07/12 10:46:01;;;;;;;8.30;2.78;;;21.60;99.90;;;;;;6332952;22;20007;-84
2023/07/12 10:48:29;;;;;;;7.32;2.30;;;21.80;99.90;;;;;;6335084;22;20013;-83
2023/07/12 10:51:14;;;;;;;6.20;1.92;;;22.10;99.90;;;;;;6305281;22;20394;-84
2023/07/12 10:53:49;;;;;;;5.70;1.50;;;22.20;99.90;;;;;;6279706;22;20015;-83
2023/07/12 10:56:25;;;;;;;5.32;1.85;;;22.10;99.90;;;;;;6333442;22;20358;-83
2023/07/12 10:59:04;;;;;;;5.90;1.60;;;22.10;99.90;;;;;;6333521;22;20018;-83
2023/07/12 11:01:41;;;;;;;5.53;1.95;;;22.20;99.90;;;;;;6306035;22;20045;-84
2023/07/12 11:04:11;;;;;;;5.65;1.60;;;22.30;99.90;;;;;;6304810;22;20059;-84
2023/07/12 11:07:01;;;;;;;6.90;1.50;;;22.40;99.90;;;;;;6333902;22;20337;-85
2023/07/12 11:09:49;;;;;;;5.18;1.75;;;22.60;99.90;;;;;;6333450;22;20116;-83
2023/07/12 11:12:38;;;;;;;6.07;1.35;;;22.70;99.90;;;;;;6332504;22;20094;-84
2023/07/12 11:15:22;;;;;;;4.03;1.40;;;22.80;99.90;;;;;;6331626;22;20512;-84
2023/07/12 11:17:53;;;;;;;5.72;1.60;;;22.90;99.90;;;;;;6304206;22;20015;-84
2023/07/12 11:20:32;;;;;;;5.38;1.85;;;22.90;99.90;;;;;;6332730;22;20018;-84
2023/07/12 11:23:07;;;;;;;4.97;1.50;;;22.90;99.90;;;;;;6332238;22;20094;-84
2023/07/12 11:25:37;;;;;;;6.20;1.48;;;23.00;99.90;;;;;;6331714;22;20015;-84
2023/07/12 11:28:24;;;;;;;5.80;1.70;;;23.00;99.90;;;;;;6334378;22;20015;-83
2023/07/12 11:31:17;;;;;;;8.15;2.08;;;22.80;99.90;;;;;;6335109;22;20003;-84
2023/07/12 11:33:50;;;;;;;8.82;1.60;;;22.60;99.90;;;;;;6333966;22;20025;-84
2023/07/12 11:36:21;;;;;;;6.47;1.58;;;22.60;99.90;;;;;;6305987;22;20567;-84
2023/07/12 11:38:49;;;;;;;4.40;1.55;;;22.60;99.90;;;;;;6334840;22;20093;-83
2023/07/12 11:41:23;;;;;;;7.78;1.60;;;22.80;99.90;;;;;;6305592;22;20015;-84
2023/07/12 11:44:02;;;;;;;8.38;2.03;;;23.00;99.90;;;;;;6306892;22;20010;-84
2023/07/12 11:46:33;;;;;;;8.75;1.40;;;23.20;99.90;;;;;;6280991;22;20007;-84
2023/07/12 11:49:11;;;;;;;4.40;1.30;;;23.30;99.90;;;;;;6280677;22;20460;-85
2023/07/12 11:51:39;;;;;;;4.93;1.20;;;23.40;99.90;;;;;;6306873;22;20507;-84
2023/07/12 11:54:20;;;;;;;4.03;1.15;;;23.50;99.90;;;;;;6334718;22;20015;-84
2023/07/12 11:56:49;;;;;;;5.90;1.27;;;23.60;99.90;;;;;;6335255;22;20018;-84
2023/07/12 11:59:21;;;;;;;4.22;1.17;;;23.70;99.90;;;;;;6307642;22;20076;-84
2023/07/12 12:01:47;;;;;;;3.25;1.00;;;23.70;99.90;;;;;;6308755;22;20449;-83
2023/07/12 12:04:26;;;;;;;3.40;0.80;;;23.70;99.90;;;;;;6306536;22;20466;-82
2023/07/12 12:06:55;;;;;;;1.98;0.82;;;23.50;99.90;;;;;;6308021;22;20018;-84
2023/07/12 12:09:28;;;;;;;3.95;0.80;;;23.50;99.90;;;;;;6338017;22;20014;-85
2023/07/12 12:11:54;;;;;;;4.93;1.00;;;23.50;99.90;;;;;;6310623;22;20430;-86
2023/07/12 12:14:29;;;;;;;4.32;1.10;;;23.50;99.90;;;;;;6310695;22;20478;-85
2023/07/12 12:17:02;;;;;;;3.17;1.00;;;23.70;99.90;;;;;;6339502;22;20011;-85
2023/07/12 12:19:28;;;;;;;2.83;0.75;;;23.70;99.90;;;;;;6311859;22;20089;-86
2023/07/12 12:22:24;;;;;;;3.28;1.00;;;23.70;99.90;;;;;;6311672;22;20010;-87
2023/07/12 12:24:54;;;;;;;2.42;0.80;;;23.70;99.90;;;;;;6277461;22;20106;-83
2023/07/12 12:27:43;;;;;;;3.58;1.00;;;23.70;99.90;;;;;;6280813;22;20058;-83
2023/07/12 12:30:15;;;;;;;3.47;1.00;;;23.70;99.90;;;;;;6309266;22;20011;-89
2023/07/12 12:32:41;;;;;;;4.20;0.90;;;23.80;99.90;;;;;;6284965;22;20018;-84
2023/07/12 12:35:13;;;;;;;5.32;0.82;;;23.90;99.90;;;;;;6336682;22;20030;-86
2023/07/12 12:37:39;;;;;;;5.05;1.35;;;24.00;99.90;;;;;;6307432;22;20022;-85
2023/07/12 12:40:17;;;;;;;5.05;1.10;;;24.10;99.90;;;;;;6308783;22;20099;-85
2023/07/12 12:43:02;;;;;;;3.42;0.70;;;24.10;99.90;;;;;;6335902;22;20022;-85
2023/07/12 12:45:46;;;;;;;5.22;1.30;;;24.00;99.90;;;;;;6282421;22;20011;-84
2023/07/12 12:48:12;;;;;;;5.85;0.98;;;24.10;99.90;;;;;;6307827;22;20014;-82
2023/07/12 12:50:38;;;;;;;3.75;0.88;;;24.10;99.90;;;;;;6307942;22;20783;-83
2023/07/12 12:53:05;;;;;;;3.25;0.80;;;24.10;99.90;;;;;;6334771;22;20019;-83
2023/07/12 12:55:33;;;;;;;3.22;0.90;;;24.00;99.90;;;;;;6307177;22;20022;-83